sensor_id;sensor_type;location;lat;lon;timestamp;P1;durP1;ratioP1;P2;durP2;ratioP2
39882;SDS011;55824;52.220;21.040;2023-07-13T00:02:06;6.10;;;4.30;;
39882;SDS011;55824;52.220;21.040;2023-07-13T00:04:32;5.75;;;4.43;;
39882;SDS011;55824;52.220;21.040;2023-07-13T00:06:58;5.38;;;4.55;;
39882;SDS011;55824;52.220;21.040;2023-07-13T00:09:24;5.38;;;4.13;;
39882;SDS011;55824;52.220;21.040;2023-07-13T00:11:51;5.10;;;3.88;;
39882;SDS011;55824;52.220;21.040;2023-07-13T00:14:17;6.53;;;4.93;;
39882;SDS011;55824;52.220;21.040;2023-07-13T00:16:43;6.95;;;4.22;;
39882;SDS011;55824;52.220;21.040;2023-07-13T00:19:10;5.55;;;4.30;;
39882;SDS011;55824;52.220;21.040;2023-07-13T00:21:37;5.90;;;4.70;;
39882;SDS011;55824;52.220;21.040;2023-07-13T00:24:03;7.72;;;4.20;;
39882;SDS011;55824;52.220;21.040;2023-07-13T00:26:30;6.10;;;4.18;;
39882;SDS011;55824;52.220;21.040;2023-07-13T00:28:57;6.47;;;4.20;;
39882;SDS011;55824;52.220;21.040;2023-07-13T00:31:23;5.43;;;4.40;;
39882;SDS011;55824;52.220;21.040;2023-07-13T00:33:49;6.35;;;4.15;;
39882;SDS011;55824;52.220;21.040;2023-07-13T00:36:15;5.05;;;3.95;;
39882;SDS011;55824;52.220;21.040;2023-07-13T00:38:41;6.70;;;4.30;;
39882;SDS011;55824;52.220;21.040;2023-07-13T00:41:07;5.25;;;4.20;;
39882;SDS011;55824;52.220;21.040;2023-07-13T00:43:34;10.50;;;4.32;;
39882;SDS011;55824;52.220;21.040;2023-07-13T00:48:38;5.60;;;4.03;;
39882;SDS011;55824;52.220;21.040;2023-07-13T00:51:04;6.45;;;4.78;;
39882;SDS011;55824;52.220;21.040;2023-07-13T00:53:30;7.10;;;4.22;;
39882;SDS011;55824;52.220;21.040;2023-07-13T00:55:57;6.45;;;3.97;;
39882;SDS011;55824;52.220;21.040;2023-07-13T00:58:24;7.40;;;5.00;;
39882;SDS011;55824;52.220;21.040;2023-07-13T01:00:51;5.13;;;4.35;;
39882;SDS011;55824;52.220;21.040;2023-07-13T01:03:17;5.38;;;4.45;;
39882;SDS011;55824;52.220;21.040;2023-07-13T01:05:44;6.78;;;4.40;;
39882;SDS011;55824;52.220;21.040;2023-07-13T01:08:12;5.63;;;4.07;;
39882;SDS011;55824;52.220;21.040;2023-07-13T01:10:38;6.75;;;3.95;;
39882;SDS011;55824;52.220;21.040;2023-07-13T01:13:08;5.90;;;3.97;;
39882;SDS011;55824;52.220;21.040;2023-07-13T01:15:42;4.90;;;3.78;;
39882;SDS011;55824;52.220;21.040;2023-07-13T01:18:12;5.30;;;4.13;;
39882;SDS011;55824;52.220;21.040;2023-07-13T01:20:38;4.45;;;3.75;;
39882;SDS011;55824;52.220;21.040;2023-07-13T01:23:05;6.68;;;3.92;;
39882;SDS011;55824;52.220;21.040;2023-07-13T01:25:31;5.32;;;3.80;;
39882;SDS011;55824;52.220;21.040;2023-07-13T01:27:57;5.70;;;4.15;;
39882;SDS011;55824;52.220;21.040;2023-07-13T01:30:23;5.70;;;4.03;;
39882;SDS011;55824;52.220;21.040;2023-07-13T01:32:49;5.93;;;3.88;;
39882;SDS011;55824;52.220;21.040;2023-07-13T01:35:15;6.03;;;4.32;;
39882;SDS011;55824;52.220;21.040;2023-07-13T01:37:41;5.97;;;4.30;;
39882;SDS011;55824;52.220;21.040;2023-07-13T01:40:10;5.70;;;3.92;;
39882;SDS011;55824;52.220;21.040;2023-07-13T01:42:36;4.90;;;3.50;;
39882;SDS011;55824;52.220;21.040;2023-07-13T01:45:02;6.57;;;4.45;;
39882;SDS011;55824;52.220;21.040;2023-07-13T01:47:28;5.03;;;3.47;;
39882;SDS011;55824;52.220;21.040;2023-07-13T01:49:55;5.25;;;3.95;;
39882;SDS011;55824;52.220;21.040;2023-07-13T01:52:21;5.72;;;3.88;;
39882;SDS011;55824;52.220;21.040;2023-07-13T01:54:47;5.88;;;3.92;;
39882;SDS011;55824;52.220;21.040;2023-07-13T01:57:13;6.68;;;4.28;;
39882;SDS011;55824;52.220;21.040;2023-07-13T01:59:39;5.60;;;4.10;;
39882;SDS011;55824;52.220;21.040;2023-07-13T02:02:05;6.28;;;4.15;;
39882;SDS011;55824;52.220;21.040;2023-07-13T02:04:31;5.57;;;3.92;;
39882;SDS011;55824;52.220;21.040;2023-07-13T02:06:57;5.65;;;3.95;;
39882;SDS011;55824;52.220;21.040;2023-07-13T02:09:23;7.07;;;4.30;;
39882;SDS011;55824;52.220;21.040;2023-07-13T02:11:49;5.20;;;3.63;;
39882;SDS011;55824;52.220;21.040;2023-07-13T02:14:15;5.85;;;4.18;;
39882;SDS011;55824;52.220;21.040;2023-07-13T02:16:42;6.47;;;4.40;;
39882;SDS011;55824;52.220;21.040;2023-07-13T02:19:08;6.75;;;3.92;;
39882;SDS011;55824;52.220;21.040;2023-07-13T02:21:34;5.75;;;4.20;;
39882;SDS011;55824;52.220;21.040;2023-07-13T02:24:00;6.00;;;4.32;;
39882;SDS011;55824;52.220;21.040;2023-07-13T02:26:26;6.22;;;4.25;;
39882;SDS011;55824;52.220;21.040;2023-07-13T02:28:52;5.00;;;4.00;;
39882;SDS011;55824;52.220;21.040;2023-07-13T02:31:18;7.80;;;4.40;;
39882;SDS011;55824;52.220;21.040;2023-07-13T02:33:44;6.72;;;4.28;;
39882;SDS011;55824;52.220;21.040;2023-07-13T02:36:11;6.32;;;4.43;;
39882;SDS011;55824;52.220;21.040;2023-07-13T02:38:39;11.07;;;5.32;;
39882;SDS011;55824;52.220;21.040;2023-07-13T02:41:05;6.65;;;4.55;;
39882;SDS011;55824;52.220;21.040;2023-07-13T02:43:33;7.55;;;4.43;;
39882;SDS011;55824;52.220;21.040;2023-07-13T02:45:59;6.32;;;4.57;;
39882;SDS011;55824;52.220;21.040;2023-07-13T02:48:31;6.75;;;4.72;;
39882;SDS011;55824;52.220;21.040;2023-07-13T02:50:57;5.35;;;4.43;;
39882;SDS011;55824;52.220;21.040;2023-07-13T02:53:23;6.20;;;4.25;;
39882;SDS011;55824;52.220;21.040;2023-07-13T02:55:49;6.25;;;4.63;;
39882;SDS011;55824;52.220;21.040;2023-07-13T02:58:15;9.25;;;6.03;;
39882;SDS011;55824;52.220;21.040;2023-07-13T03:00:42;7.13;;;4.75;;
39882;SDS011;55824;52.220;21.040;2023-07-13T03:03:08;6.68;;;4.70;;
39882;SDS011;55824;52.220;21.040;2023-07-13T03:05:34;6.60;;;5.03;;
39882;SDS011;55824;52.220;21.040;2023-07-13T03:08:00;6.47;;;4.60;;
39882;SDS011;55824;52.220;21.040;2023-07-13T03:10:26;6.07;;;4.60;;
39882;SDS011;55824;52.220;21.040;2023-07-13T03:12:53;7.03;;;4.88;;
39882;SDS011;55824;52.220;21.040;2023-07-13T03:15:18;6.30;;;4.30;;
39882;SDS011;55824;52.220;21.040;2023-07-13T03:17:44;6.53;;;4.75;;
39882;SDS011;55824;52.220;21.040;2023-07-13T03:20:10;6.68;;;5.05;;
39882;SDS011;55824;52.220;21.040;2023-07-13T03:22:37;6.38;;;4.95;;
39882;SDS011;55824;52.220;21.040;2023-07-13T03:25:03;6.72;;;4.65;;
39882;SDS011;55824;52.220;21.040;2023-07-13T03:27:29;7.82;;;5.35;;
39882;SDS011;55824;52.220;21.040;2023-07-13T03:29:55;7.32;;;5.00;;
39882;SDS011;55824;52.220;21.040;2023-07-13T03:32:21;6.85;;;4.93;;
39882;SDS011;55824;52.220;21.040;2023-07-13T03:34:47;7.20;;;4.85;;
39882;SDS011;55824;52.220;21.040;2023-07-13T03:37:14;6.97;;;5.47;;
39882;SDS011;55824;52.220;21.040;2023-07-13T03:39:40;6.85;;;4.93;;
39882;SDS011;55824;52.220;21.040;2023-07-13T03:42:07;6.70;;;4.80;;
39882;SDS011;55824;52.220;21.040;2023-07-13T03:44:33;7.30;;;4.60;;
39882;SDS011;55824;52.220;21.040;2023-07-13T03:46:59;6.82;;;5.05;;
39882;SDS011;55824;52.220;21.040;2023-07-13T03:49:25;8.77;;;5.15;;
39882;SDS011;55824;52.220;21.040;2023-07-13T03:51:51;12.30;;;5.25;;
39882;SDS011;55824;52.220;21.040;2023-07-13T03:54:17;7.97;;;5.40;;
39882;SDS011;55824;52.220;21.040;2023-07-13T03:56:43;7.22;;;5.25;;
39882;SDS011;55824;52.220;21.040;2023-07-13T03:59:09;7.50;;;5.07;;
39882;SDS011;55824;52.220;21.040;2023-07-13T04:01:35;6.97;;;5.32;;
39882;SDS011;55824;52.220;21.040;2023-07-13T04:04:01;7.75;;;5.68;;
39882;SDS011;55824;52.220;21.040;2023-07-13T04:06:28;7.15;;;5.00;;
39882;SDS011;55824;52.220;21.040;2023-07-13T04:08:55;7.80;;;5.35;;
39882;SDS011;55824;52.220;21.040;2023-07-13T04:11:24;8.15;;;4.95;;
39882;SDS011;55824;52.220;21.040;2023-07-13T04:13:50;9.52;;;5.45;;
39882;SDS011;55824;52.220;21.040;2023-07-13T04:16:17;6.25;;;5.05;;
39882;SDS011;55824;52.220;21.040;2023-07-13T04:18:43;7.22;;;4.90;;
39882;SDS011;55824;52.220;21.040;2023-07-13T04:21:09;6.45;;;5.03;;
39882;SDS011;55824;52.220;21.040;2023-07-13T04:23:36;8.07;;;5.45;;
39882;SDS011;55824;52.220;21.040;2023-07-13T04:26:02;7.00;;;5.20;;
39882;SDS011;55824;52.220;21.040;2023-07-13T04:28:28;6.43;;;4.70;;
39882;SDS011;55824;52.220;21.040;2023-07-13T04:30:54;7.38;;;5.63;;
39882;SDS011;55824;52.220;21.040;2023-07-13T04:33:20;7.85;;;5.45;;
39882;SDS011;55824;52.220;21.040;2023-07-13T04:35:47;7.40;;;5.45;;
39882;SDS011;55824;52.220;21.040;2023-07-13T04:38:13;5.88;;;4.63;;
39882;SDS011;55824;52.220;21.040;2023-07-13T04:40:42;6.97;;;5.07;;
39882;SDS011;55824;52.220;21.040;2023-07-13T04:43:08;8.57;;;4.97;;
39882;SDS011;55824;52.220;21.040;2023-07-13T04:45:34;7.07;;;4.90;;
39882;SDS011;55824;52.220;21.040;2023-07-13T04:48:00;7.22;;;5.60;;
39882;SDS011;55824;52.220;21.040;2023-07-13T04:50:26;6.75;;;4.95;;
39882;SDS011;55824;52.220;21.040;2023-07-13T04:52:52;7.40;;;5.05;;
39882;SDS011;55824;52.220;21.040;2023-07-13T04:55:19;7.15;;;5.00;;
39882;SDS011;55824;52.220;21.040;2023-07-13T04:57:45;7.53;;;5.15;;
39882;SDS011;55824;52.220;21.040;2023-07-13T05:00:11;7.32;;;4.95;;
39882;SDS011;55824;52.220;21.040;2023-07-13T05:02:38;8.05;;;5.68;;
39882;SDS011;55824;52.220;21.040;2023-07-13T05:05:04;6.30;;;5.13;;
39882;SDS011;55824;52.220;21.040;2023-07-13T05:07:31;6.75;;;5.20;;
39882;SDS011;55824;52.220;21.040;2023-07-13T05:09:58;9.73;;;5.70;;
39882;SDS011;55824;52.220;21.040;2023-07-13T05:12:24;6.45;;;5.68;;
39882;SDS011;55824;52.220;21.040;2023-07-13T05:14:50;9.07;;;5.20;;
39882;SDS011;55824;52.220;21.040;2023-07-13T05:17:16;9.50;;;5.65;;
39882;SDS011;55824;52.220;21.040;2023-07-13T05:19:42;8.63;;;5.70;;
39882;SDS011;55824;52.220;21.040;2023-07-13T05:22:08;7.15;;;5.43;;
39882;SDS011;55824;52.220;21.040;2023-07-13T05:24:34;6.13;;;4.97;;
39882;SDS011;55824;52.220;21.040;2023-07-13T05:27:00;8.75;;;6.00;;
39882;SDS011;55824;52.220;21.040;2023-07-13T05:29:26;7.60;;;5.32;;
39882;SDS011;55824;52.220;21.040;2023-07-13T05:31:53;9.57;;;5.60;;
39882;SDS011;55824;52.220;21.040;2023-07-13T05:34:19;7.78;;;5.55;;
39882;SDS011;55824;52.220;21.040;2023-07-13T05:36:44;11.07;;;5.63;;
39882;SDS011;55824;52.220;21.040;2023-07-13T05:39:10;9.45;;;5.72;;
39882;SDS011;55824;52.220;21.040;2023-07-13T05:41:36;8.02;;;6.05;;
39882;SDS011;55824;52.220;21.040;2023-07-13T05:44:02;9.80;;;5.35;;
39882;SDS011;55824;52.220;21.040;2023-07-13T05:46:28;7.72;;;5.47;;
39882;SDS011;55824;52.220;21.040;2023-07-13T05:48:55;8.35;;;5.80;;
39882;SDS011;55824;52.220;21.040;2023-07-13T05:51:21;7.45;;;5.93;;
39882;SDS011;55824;52.220;21.040;2023-07-13T05:53:47;8.63;;;5.88;;
39882;SDS011;55824;52.220;21.040;2023-07-13T05:56:13;8.60;;;6.32;;
39882;SDS011;55824;52.220;21.040;2023-07-13T05:58:39;9.55;;;6.28;;
39882;SDS011;55824;52.220;21.040;2023-07-13T06:01:08;8.80;;;5.85;;
39882;SDS011;55824;52.220;21.040;2023-07-13T06:03:34;10.65;;;6.32;;
39882;SDS011;55824;52.220;21.040;2023-07-13T06:06:00;17.52;;;6.95;;
39882;SDS011;55824;52.220;21.040;2023-07-13T06:08:27;11.50;;;6.75;;
39882;SDS011;55824;52.220;21.040;2023-07-13T06:10:53;9.63;;;6.25;;
39882;SDS011;55824;52.220;21.040;2023-07-13T06:13:19;10.38;;;6.20;;
39882;SDS011;55824;52.220;21.040;2023-07-13T06:15:49;9.73;;;6.05;;
39882;SDS011;55824;52.220;21.040;2023-07-13T06:18:15;10.77;;;6.32;;
39882;SDS011;55824;52.220;21.040;2023-07-13T06:20:41;15.18;;;5.35;;
39882;SDS011;55824;52.220;21.040;2023-07-13T06:23:07;14.35;;;6.60;;
39882;SDS011;55824;52.220;21.040;2023-07-13T06:25:33;16.33;;;6.65;;
39882;SDS011;55824;52.220;21.040;2023-07-13T06:27:59;13.43;;;5.93;;
39882;SDS011;55824;52.220;21.040;2023-07-13T06:30:25;8.77;;;6.40;;
39882;SDS011;55824;52.220;21.040;2023-07-13T06:32:51;14.38;;;6.47;;
39882;SDS011;55824;52.220;21.040;2023-07-13T06:35:17;11.60;;;6.15;;
39882;SDS011;55824;52.220;21.040;2023-07-13T06:37:43;7.70;;;5.38;;
39882;SDS011;55824;52.220;21.040;2023-07-13T06:40:09;11.27;;;5.40;;
39882;SDS011;55824;52.220;21.040;2023-07-13T06:42:35;7.38;;;5.53;;
39882;SDS011;55824;52.220;21.040;2023-07-13T06:45:03;9.73;;;5.20;;
39882;SDS011;55824;52.220;21.040;2023-07-13T06:47:29;10.98;;;5.50;;
39882;SDS011;55824;52.220;21.040;2023-07-13T06:49:55;12.02;;;5.10;;
39882;SDS011;55824;52.220;21.040;2023-07-13T06:52:21;8.80;;;5.47;;
39882;SDS011;55824;52.220;21.040;2023-07-13T06:54:47;9.93;;;6.25;;
39882;SDS011;55824;52.220;21.040;2023-07-13T06:57:13;8.52;;;5.55;;
39882;SDS011;55824;52.220;21.040;2023-07-13T06:59:39;7.40;;;5.47;;
39882;SDS011;55824;52.220;21.040;2023-07-13T07:02:05;7.28;;;4.82;;
39882;SDS011;55824;52.220;21.040;2023-07-13T07:04:31;7.70;;;5.22;;
39882;SDS011;55824;52.220;21.040;2023-07-13T07:06:58;9.27;;;4.57;;
39882;SDS011;55824;52.220;21.040;2023-07-13T07:09:24;6.93;;;4.85;;
39882;SDS011;55824;52.220;21.040;2023-07-13T07:11:50;6.75;;;4.63;;
39882;SDS011;55824;52.220;21.040;2023-07-13T07:14:16;7.70;;;4.88;;
39882;SDS011;55824;52.220;21.040;2023-07-13T07:16:42;10.48;;;4.93;;
39882;SDS011;55824;52.220;21.040;2023-07-13T07:19:08;8.32;;;4.55;;
39882;SDS011;55824;52.220;21.040;2023-07-13T07:21:34;6.93;;;4.68;;
39882;SDS011;55824;52.220;21.040;2023-07-13T07:24:00;8.15;;;4.50;;
39882;SDS011;55824;52.220;21.040;2023-07-13T07:26:28;6.25;;;4.75;;
39882;SDS011;55824;52.220;21.040;2023-07-13T07:28:54;6.60;;;4.57;;
39882;SDS011;55824;52.220;21.040;2023-07-13T07:31:20;6.22;;;4.53;;
39882;SDS011;55824;52.220;21.040;2023-07-13T07:33:46;7.35;;;4.90;;
39882;SDS011;55824;52.220;21.040;2023-07-13T07:36:12;6.93;;;4.20;;
39882;SDS011;55824;52.220;21.040;2023-07-13T07:38:38;7.63;;;4.25;;
39882;SDS011;55824;52.220;21.040;2023-07-13T07:41:04;6.18;;;4.70;;
39882;SDS011;55824;52.220;21.040;2023-07-13T07:43:30;7.32;;;4.55;;
39882;SDS011;55824;52.220;21.040;2023-07-13T07:45:56;6.57;;;4.32;;
39882;SDS011;55824;52.220;21.040;2023-07-13T07:48:23;9.45;;;4.93;;
39882;SDS011;55824;52.220;21.040;2023-07-13T07:50:48;5.45;;;4.22;;
39882;SDS011;55824;52.220;21.040;2023-07-13T07:53:14;6.18;;;4.20;;
39882;SDS011;55824;52.220;21.040;2023-07-13T07:55:40;6.22;;;4.43;;
39882;SDS011;55824;52.220;21.040;2023-07-13T07:58:07;5.20;;;4.07;;
39882;SDS011;55824;52.220;21.040;2023-07-13T08:00:33;5.60;;;4.47;;
39882;SDS011;55824;52.220;21.040;2023-07-13T08:03:00;5.30;;;4.32;;
39882;SDS011;55824;52.220;21.040;2023-07-13T08:05:26;6.43;;;4.85;;
39882;SDS011;55824;52.220;21.040;2023-07-13T08:07:52;6.82;;;4.57;;
39882;SDS011;55824;52.220;21.040;2023-07-13T08:10:18;6.57;;;4.32;;
39882;SDS011;55824;52.220;21.040;2023-07-13T08:12:44;6.93;;;4.50;;
39882;SDS011;55824;52.220;21.040;2023-07-13T08:15:11;7.60;;;4.75;;
39882;SDS011;55824;52.220;21.040;2023-07-13T08:17:38;8.20;;;4.32;;
39882;SDS011;55824;52.220;21.040;2023-07-13T08:20:04;6.00;;;4.13;;
39882;SDS011;55824;52.220;21.040;2023-07-13T08:22:30;8.40;;;4.28;;
39882;SDS011;55824;52.220;21.040;2023-07-13T08:24:56;6.22;;;3.65;;
39882;SDS011;55824;52.220;21.040;2023-07-13T08:27:23;6.38;;;4.28;;
39882;SDS011;55824;52.220;21.040;2023-07-13T08:29:50;5.25;;;3.78;;
39882;SDS011;55824;52.220;21.040;2023-07-13T08:32:16;6.00;;;4.07;;
39882;SDS011;55824;52.220;21.040;2023-07-13T08:34:43;5.47;;;3.72;;
39882;SDS011;55824;52.220;21.040;2023-07-13T08:37:09;5.10;;;3.80;;
39882;SDS011;55824;52.220;21.040;2023-07-13T08:39:35;5.82;;;3.80;;
39882;SDS011;55824;52.220;21.040;2023-07-13T08:42:11;5.25;;;3.83;;
39882;SDS011;55824;52.220;21.040;2023-07-13T08:45:21;5.88;;;3.78;;
39882;SDS011;55824;52.220;21.040;2023-07-13T08:47:28;5.15;;;3.83;;
39882;SDS011;55824;52.220;21.040;2023-07-13T08:49:55;5.57;;;3.75;;
39882;SDS011;55824;52.220;21.040;2023-07-13T08:52:36;6.95;;;3.92;;
39882;SDS011;55824;52.220;21.040;2023-07-13T08:55:22;5.32;;;3.97;;
39882;SDS011;55824;52.220;21.040;2023-07-13T08:57:55;5.75;;;4.05;;
39882;SDS011;55824;52.220;21.040;2023-07-13T09:00:22;6.13;;;3.45;;
39882;SDS011;55824;52.220;21.040;2023-07-13T09:02:52;5.28;;;3.65;;
39882;SDS011;55824;52.220;21.040;2023-07-13T09:08:00;4.60;;;3.42;;
39882;SDS011;55824;52.220;21.040;2023-07-13T09:10:28;4.00;;;3.17;;
39882;SDS011;55824;52.220;21.040;2023-07-13T09:15:31;5.07;;;3.78;;
39882;SDS011;55824;52.220;21.040;2023-07-13T09:18:04;6.03;;;3.88;;
39882;SDS011;55824;52.220;21.040;2023-07-13T09:20:35;5.68;;;3.95;;
39882;SDS011;55824;52.220;21.040;2023-07-13T09:23:04;5.70;;;4.03;;
39882;SDS011;55824;52.220;21.040;2023-07-13T09:25:33;5.00;;;3.67;;
39882;SDS011;55824;52.220;21.040;2023-07-13T09:28:08;5.97;;;4.10;;
39882;SDS011;55824;52.220;21.040;2023-07-13T09:30:45;7.30;;;3.97;;
39882;SDS011;55824;52.220;21.040;2023-07-13T09:33:12;4.95;;;3.70;;
39882;SDS011;55824;52.220;21.040;2023-07-13T09:35:39;4.82;;;3.63;;
39882;SDS011;55824;52.220;21.040;2023-07-13T09:38:11;6.65;;;3.97;;
39882;SDS011;55824;52.220;21.040;2023-07-13T09:40:56;5.45;;;4.30;;
39882;SDS011;55824;52.220;21.040;2023-07-13T09:43:25;6.30;;;4.30;;
39882;SDS011;55824;52.220;21.040;2023-07-13T09:45:53;4.32;;;3.40;;
39882;SDS011;55824;52.220;21.040;2023-07-13T09:48:19;4.70;;;3.38;;
39882;SDS011;55824;52.220;21.040;2023-07-13T09:50:45;4.90;;;3.67;;
39882;SDS011;55824;52.220;21.040;2023-07-13T09:53:15;5.75;;;3.83;;
39882;SDS011;55824;52.220;21.040;2023-07-13T09:55:42;5.93;;;3.67;;
39882;SDS011;55824;52.220;21.040;2023-07-13T09:58:10;6.70;;;3.38;;
39882;SDS011;55824;52.220;21.040;2023-07-13T10:00:37;4.53;;;3.42;;
39882;SDS011;55824;52.220;21.040;2023-07-13T10:03:14;6.10;;;3.55;;
39882;SDS011;55824;52.220;21.040;2023-07-13T10:05:43;5.95;;;3.50;;
39882;SDS011;55824;52.220;21.040;2023-07-13T10:11:00;5.85;;;3.60;;
39882;SDS011;55824;52.220;21.040;2023-07-13T10:13:35;3.80;;;3.13;;
39882;SDS011;55824;52.220;21.040;2023-07-13T10:16:04;5.32;;;3.13;;
39882;SDS011;55824;52.220;21.040;2023-07-13T10:18:35;4.43;;;3.38;;
39882;SDS011;55824;52.220;21.040;2023-07-13T10:21:11;4.60;;;3.42;;
39882;SDS011;55824;52.220;21.040;2023-07-13T10:23:38;7.95;;;3.83;;
39882;SDS011;55824;52.220;21.040;2023-07-13T10:26:04;4.63;;;3.33;;
39882;SDS011;55824;52.220;21.040;2023-07-13T10:28:36;5.60;;;3.67;;
39882;SDS011;55824;52.220;21.040;2023-07-13T10:31:02;5.25;;;3.47;;
39882;SDS011;55824;52.220;21.040;2023-07-13T10:33:31;5.35;;;3.13;;
39882;SDS011;55824;52.220;21.040;2023-07-13T10:36:12;4.03;;;3.17;;
39882;SDS011;55824;52.220;21.040;2023-07-13T10:38:39;4.60;;;2.90;;
39882;SDS011;55824;52.220;21.040;2023-07-13T10:41:06;4.45;;;3.50;;
39882;SDS011;55824;52.220;21.040;2023-07-13T10:43:39;4.20;;;3.38;;
39882;SDS011;55824;52.220;21.040;2023-07-13T10:46:08;4.70;;;2.67;;
39882;SDS011;55824;52.220;21.040;2023-07-13T10:48:35;6.00;;;3.17;;
39882;SDS011;55824;52.220;21.040;2023-07-13T10:51:03;5.10;;;3.22;;
39882;SDS011;55824;52.220;21.040;2023-07-13T10:53:32;4.63;;;2.90;;
39882;SDS011;55824;52.220;21.040;2023-07-13T10:58:38;4.78;;;3.70;;
39882;SDS011;55824;52.220;21.040;2023-07-13T11:03:31;3.95;;;2.90;;
39882;SDS011;55824;52.220;21.040;2023-07-13T11:08:36;5.47;;;3.30;;
39882;SDS011;55824;52.220;21.040;2023-07-13T11:11:04;5.63;;;3.20;;
39882;SDS011;55824;52.220;21.040;2023-07-13T11:18:45;3.85;;;3.10;;
39882;SDS011;55824;52.220;21.040;2023-07-13T11:23:37;4.70;;;3.00;;
39882;SDS011;55824;52.220;21.040;2023-07-13T11:26:36;4.22;;;2.97;;
39882;SDS011;55824;52.220;21.040;2023-07-13T11:28:53;5.65;;;3.10;;
39882;SDS011;55824;52.220;21.040;2023-07-13T11:31:19;6.00;;;3.35;;
39882;SDS011;55824;52.220;21.040;2023-07-13T11:33:56;5.45;;;2.80;;
39882;SDS011;55824;52.220;21.040;2023-07-13T11:36:24;6.10;;;3.65;;
39882;SDS011;55824;52.220;21.040;2023-07-13T11:41:36;5.47;;;3.53;;
39882;SDS011;55824;52.220;21.040;2023-07-13T11:47:00;5.15;;;3.35;;
39882;SDS011;55824;52.220;21.040;2023-07-13T11:49:30;5.43;;;3.50;;
39882;SDS011;55824;52.220;21.040;2023-07-13T11:51:57;5.53;;;3.63;;
39882;SDS011;55824;52.220;21.040;2023-07-13T11:56:50;5.40;;;3.60;;
39882;SDS011;55824;52.220;21.040;2023-07-13T11:59:16;4.85;;;3.10;;
39882;SDS011;55824;52.220;21.040;2023-07-13T12:01:44;4.88;;;3.70;;
39882;SDS011;55824;52.220;21.040;2023-07-13T12:06:47;4.55;;;3.13;;
39882;SDS011;55824;52.220;21.040;2023-07-13T12:09:18;5.57;;;3.58;;
39882;SDS011;55824;52.220;21.040;2023-07-13T12:11:50;4.18;;;3.20;;
39882;SDS011;55824;52.220;21.040;2023-07-13T12:14:16;6.65;;;3.22;;
39882;SDS011;55824;52.220;21.040;2023-07-13T12:16:43;7.00;;;3.38;;
39882;SDS011;55824;52.220;21.040;2023-07-13T12:19:14;5.50;;;3.05;;
39882;SDS011;55824;52.220;21.040;2023-07-13T12:21:42;7.35;;;3.10;;
39882;SDS011;55824;52.220;21.040;2023-07-13T12:24:19;6.30;;;3.50;;
39882;SDS011;55824;52.220;21.040;2023-07-13T12:26:50;5.25;;;3.45;;
39882;SDS011;55824;52.220;21.040;2023-07-13T12:29:17;4.78;;;3.10;;
39882;SDS011;55824;52.220;21.040;2023-07-13T12:31:44;4.90;;;3.42;;
39882;SDS011;55824;52.220;21.040;2023-07-13T12:34:14;4.85;;;3.38;;
39882;SDS011;55824;52.220;21.040;2023-07-13T12:36:56;5.45;;;3.00;;
39882;SDS011;55824;52.220;21.040;2023-07-13T12:39:34;4.93;;;3.15;;
39882;SDS011;55824;52.220;21.040;2023-07-13T12:42:13;4.78;;;3.20;;
39882;SDS011;55824;52.220;21.040;2023-07-13T12:44:40;4.55;;;3.20;;
39882;SDS011;55824;52.220;21.040;2023-07-13T12:47:14;5.65;;;2.97;;
39882;SDS011;55824;52.220;21.040;2023-07-13T12:49:42;6.15;;;2.90;;
39882;SDS011;55824;52.220;21.040;2023-07-13T12:52:20;5.35;;;3.55;;
39882;SDS011;55824;52.220;21.040;2023-07-13T12:54:57;5.20;;;3.13;;
39882;SDS011;55824;52.220;21.040;2023-07-13T12:57:24;5.82;;;3.28;;
39882;SDS011;55824;52.220;21.040;2023-07-13T12:59:54;5.78;;;3.20;;
39882;SDS011;55824;52.220;21.040;2023-07-13T13:02:30;6.32;;;3.42;;
39882;SDS011;55824;52.220;21.040;2023-07-13T13:04:58;5.45;;;3.10;;
39882;SDS011;55824;52.220;21.040;2023-07-13T13:07:24;6.85;;;4.22;;
39882;SDS011;55824;52.220;21.040;2023-07-13T13:09:50;5.57;;;3.70;;
39882;SDS011;55824;52.220;21.040;2023-07-13T13:12:18;4.95;;;3.40;;
39882;SDS011;55824;52.220;21.040;2023-07-13T13:14:44;5.57;;;3.53;;
39882;SDS011;55824;52.220;21.040;2023-07-13T13:17:16;7.10;;;3.85;;
39882;SDS011;55824;52.220;21.040;2023-07-13T13:19:44;5.65;;;3.60;;
39882;SDS011;55824;52.220;21.040;2023-07-13T13:22:10;6.03;;;3.53;;
39882;SDS011;55824;52.220;21.040;2023-07-13T13:24:36;6.80;;;3.75;;
39882;SDS011;55824;52.220;21.040;2023-07-13T13:27:02;5.93;;;3.55;;
39882;SDS011;55824;52.220;21.040;2023-07-13T13:29:28;5.00;;;3.55;;
39882;SDS011;55824;52.220;21.040;2023-07-13T13:31:54;5.45;;;3.60;;
39882;SDS011;55824;52.220;21.040;2023-07-13T13:34:21;6.95;;;3.60;;
39882;SDS011;55824;52.220;21.040;2023-07-13T13:36:51;5.72;;;3.47;;
39882;SDS011;55824;52.220;21.040;2023-07-13T13:44:14;6.57;;;3.75;;
39882;SDS011;55824;52.220;21.040;2023-07-13T13:46:40;5.53;;;3.22;;
39882;SDS011;55824;52.220;21.040;2023-07-13T13:49:11;6.03;;;3.95;;
39882;SDS011;55824;52.220;21.040;2023-07-13T13:51:39;7.32;;;3.67;;
39882;SDS011;55824;52.220;21.040;2023-07-13T13:54:05;7.10;;;3.70;;
39882;SDS011;55824;52.220;21.040;2023-07-13T13:56:35;7.63;;;3.70;;
39882;SDS011;55824;52.220;21.040;2023-07-13T13:59:01;5.07;;;3.33;;
39882;SDS011;55824;52.220;21.040;2023-07-13T14:01:27;5.10;;;3.60;;
39882;SDS011;55824;52.220;21.040;2023-07-13T14:03:53;4.28;;;3.17;;
39882;SDS011;55824;52.220;21.040;2023-07-13T14:06:19;7.05;;;3.80;;
39882;SDS011;55824;52.220;21.040;2023-07-13T14:08:45;5.45;;;3.88;;
39882;SDS011;55824;52.220;21.040;2023-07-13T14:11:16;6.45;;;3.78;;
39882;SDS011;55824;52.220;21.040;2023-07-13T14:13:43;5.70;;;3.63;;
39882;SDS011;55824;52.220;21.040;2023-07-13T14:16:12;5.28;;;3.63;;
39882;SDS011;55824;52.220;21.040;2023-07-13T14:18:42;6.95;;;3.80;;
39882;SDS011;55824;52.220;21.040;2023-07-13T14:21:16;6.07;;;3.67;;
39882;SDS011;55824;52.220;21.040;2023-07-13T14:23:43;6.35;;;3.80;;
39882;SDS011;55824;52.220;21.040;2023-07-13T14:26:13;6.57;;;3.92;;
39882;SDS011;55824;52.220;21.040;2023-07-13T14:28:41;6.15;;;3.63;;
39882;SDS011;55824;52.220;21.040;2023-07-13T14:31:08;5.00;;;3.42;;
39882;SDS011;55824;52.220;21.040;2023-07-13T14:33:35;8.32;;;3.90;;
39882;SDS011;55824;52.220;21.040;2023-07-13T14:36:02;6.82;;;3.65;;
39882;SDS011;55824;52.220;21.040;2023-07-13T14:38:28;7.88;;;3.65;;
39882;SDS011;55824;52.220;21.040;2023-07-13T14:40:54;5.43;;;3.88;;
39882;SDS011;55824;52.220;21.040;2023-07-13T14:43:20;6.85;;;4.10;;
39882;SDS011;55824;52.220;21.040;2023-07-13T14:45:46;8.25;;;4.07;;
39882;SDS011;55824;52.220;21.040;2023-07-13T14:48:15;7.15;;;4.10;;
39882;SDS011;55824;52.220;21.040;2023-07-13T14:50:42;5.90;;;3.20;;
39882;SDS011;55824;52.220;21.040;2023-07-13T14:53:09;6.05;;;3.92;;
39882;SDS011;55824;52.220;21.040;2023-07-13T14:55:36;5.85;;;3.88;;
39882;SDS011;55824;52.220;21.040;2023-07-13T14:58:02;5.78;;;3.35;;
39882;SDS011;55824;52.220;21.040;2023-07-13T15:00:28;8.63;;;4.30;;
39882;SDS011;55824;52.220;21.040;2023-07-13T15:02:55;7.15;;;4.13;;
39882;SDS011;55824;52.220;21.040;2023-07-13T15:05:24;5.25;;;3.17;;
39882;SDS011;55824;52.220;21.040;2023-07-13T15:07:50;6.13;;;3.60;;
39882;SDS011;55824;52.220;21.040;2023-07-13T15:10:37;5.72;;;3.47;;
39882;SDS011;55824;52.220;21.040;2023-07-13T15:13:18;7.55;;;4.00;;
39882;SDS011;55824;52.220;21.040;2023-07-13T15:15:49;5.32;;;3.75;;
39882;SDS011;55824;52.220;21.040;2023-07-13T15:18:16;6.75;;;4.10;;